Time;durP1;ratioP1;P1;durP2;ratioP2;P2;SDS_P1;SDS_P2;PMS_P1;PMS_P2;Temp;Humidity;BMP_temperature;BMP_pressure;BME280_temperature;BME280_humidity;BME280_pressure;Samples;Min_cycle;Max_cycle;Signal;HPM_P1;HPM_P2
2024/01/02 00:01:41;;;;;;;14.82;3.42;;;;;;;;;;5031378;28;20034;-78
2024/01/02 00:04:08;;;;;;;12.50;3.33;;;;;;;;;;5037309;28;20033;-78
2024/01/02 00:06:36;;;;;;;19.20;3.67;;;;;;;;;;5013870;28;20769;-78
2024/01/02 00:09:02;;;;;;;15.25;4.75;;;;;;;;;;5011954;28;20041;-77
2024/01/02 00:11:31;;;;;;;12.73;3.88;;;;;;;;;;5017557;28;20038;-79
2024/01/02 00:13:57;;;;;;;15.63;2.88;;;;;;;;;;5006794;28;20029;-78
2024/01/02 00:16:23;;;;;;;13.35;3.05;;;;;;;;;;5022355;28;20033;-79
2024/01/02 00:18:49;;;;;;;6.75;2.10;;;;;;;;;;5017732;28;20044;-78
2024/01/02 00:21:16;;;;;;;11.85;2.80;;;;;;;;;;5027326;28;20029;-80
2024/01/02 00:23:42;;;;;;;12.73;2.78;;;;;;;;;;5028599;28;20057;-78
2024/01/02 00:26:08;;;;;;;16.13;3.15;;;;;;;;;;5020446;28;20034;-77
2024/01/02 00:28:34;;;;;;;13.48;2.83;;;;;;;;;;5007930;28;20435;-77
2024/01/02 00:31:00;;;;;;;9.13;2.50;;;;;;;;;;5022491;28;20506;-78
2024/01/02 00:33:26;;;;;;;8.63;2.05;;;;;;;;;;5017156;28;20475;-78
2024/01/02 00:35:52;;;;;;;11.40;2.10;;;;;;;;;;5014025;28;20416;-78
2024/01/02 00:38:19;;;;;;;17.02;2.72;;;;;;;;;;5011814;28;20121;-78
2024/01/02 00:40:45;;;;;;;11.30;2.50;;;;;;;;;;5027348;28;20033;-78
2024/01/02 00:43:11;;;;;;;11.93;2.92;;;;;;;;;;5015492;28;20108;-78
2024/01/02 00:45:37;;;;;;;16.90;2.67;;;;;;;;;;5021757;28;20049;-78
2024/01/02 00:48:03;;;;;;;14.00;2.60;;;;;;;;;;5022636;28;20029;-77
2024/01/02 00:50:31;;;;;;;14.48;2.65;;;;;;;;;;5009168;28;20026;-77
2024/01/02 00:52:57;;;;;;;8.00;2.15;;;;;;;;;;5013708;28;20791;-78
2024/01/02 00:55:24;;;;;;;19.48;2.85;;;;;;;;;;5034332;28;20120;-78
2024/01/02 00:57:50;;;;;;;16.13;2.67;;;;;;;;;;5026220;28;20033;-77
2024/01/02 01:00:16;;;;;;;11.98;2.90;;;;;;;;;;5011783;28;20034;-77
2024/01/02 01:02:42;;;;;;;18.27;3.08;;;;;;;;;;5019603;28;20030;-78
2024/01/02 01:05:08;;;;;;;19.80;2.78;;;;;;;;;;5033970;28;20526;-77
2024/01/02 01:07:34;;;;;;;14.88;3.05;;;;;;;;;;5019986;28;20046;-77
2024/01/02 01:10:01;;;;;;;13.52;2.42;;;;;;;;;;5018856;28;20084;-77
2024/01/02 01:12:27;;;;;;;18.58;3.20;;;;;;;;;;5024838;28;20553;-76
2024/01/02 01:14:53;;;;;;;23.60;3.72;;;;;;;;;;5015736;28;20409;-75
2024/01/02 01:17:19;;;;;;;17.77;2.40;;;;;;;;;;5023230;28;20395;-77
2024/01/02 01:19:45;;;;;;;9.90;2.90;;;;;;;;;;5017612;28;20042;-77
2024/01/02 01:22:11;;;;;;;16.35;3.03;;;;;;;;;;5024778;28;20033;-76
2024/01/02 01:24:37;;;;;;;18.15;3.28;;;;;;;;;;5020416;28;20160;-77
2024/01/02 01:27:03;;;;;;;16.80;4.18;;;;;;;;;;5028809;28;20034;-76
2024/01/02 01:29:29;;;;;;;19.48;3.25;;;;;;;;;;5019417;28;20029;-76
2024/01/02 01:31:55;;;;;;;20.20;2.67;;;;;;;;;;5025049;28;20029;-75
2024/01/02 01:34:21;;;;;;;15.70;2.55;;;;;;;;;;5016285;28;20371;-75
2024/01/02 01:36:47;;;;;;;16.00;2.47;;;;;;;;;;5012030;28;20040;-75
2024/01/02 01:39:13;;;;;;;14.38;2.40;;;;;;;;;;5016854;28;20034;-75
2024/01/02 01:41:39;;;;;;;15.70;2.30;;;;;;;;;;5021943;28;20441;-75
2024/01/02 01:44:07;;;;;;;12.85;2.65;;;;;;;;;;5043173;28;20096;-75
2024/01/02 01:46:37;;;;;;;13.65;2.35;;;;;;;;;;5024340;28;20034;-75
2024/01/02 01:49:04;;;;;;;11.40;2.60;;;;;;;;;;5027835;28;20033;-75
2024/01/02 01:51:30;;;;;;;13.77;2.72;;;;;;;;;;5016807;28;20038;-75
2024/01/02 01:53:59;;;;;;;19.65;3.53;;;;;;;;;;5018662;28;20550;-75
2024/01/02 01:56:25;;;;;;;10.75;3.00;;;;;;;;;;5025421;28;20026;-75
2024/01/02 01:58:51;;;;;;;17.92;2.55;;;;;;;;;;5030411;28;20033;-75
2024/01/02 02:01:17;;;;;;;9.93;2.25;;;;;;;;;;5019684;28;20033;-76
2024/01/02 02:03:44;;;;;;;11.20;2.35;;;;;;;;;;5025577;28;20029;-78
2024/01/02 02:06:10;;;;;;;10.93;2.55;;;;;;;;;;5014759;28;20078;-77
2024/01/02 02:08:37;;;;;;;16.17;3.38;;;;;;;;;;5013194;28;20034;-77
2024/01/02 02:11:03;;;;;;;17.95;3.03;;;;;;;;;;5018024;28;20029;-76
2024/01/02 02:13:29;;;;;;;16.05;3.20;;;;;;;;;;5021503;28;20034;-76
2024/01/02 02:15:55;;;;;;;14.77;2.92;;;;;;;;;;5019161;28;20104;-76
2024/01/02 02:18:21;;;;;;;15.27;3.22;;;;;;;;;;5020246;28;20033;-76
2024/01/02 02:20:49;;;;;;;9.52;2.60;;;;;;;;;;5018527;28;20084;-76
2024/01/02 02:23:16;;;;;;;10.70;3.05;;;;;;;;;;5012110;28;20022;-76
2024/01/02 02:25:42;;;;;;;15.75;2.78;;;;;;;;;;5022990;28;20034;-75
2024/01/02 02:28:08;;;;;;;9.48;2.90;;;;;;;;;;5026186;28;20029;-76
2024/01/02 02:30:34;;;;;;;15.55;2.90;;;;;;;;;;5026744;28;20038;-76
2024/01/02 02:33:00;;;;;;;16.60;2.67;;;;;;;;;;5022020;28;20040;-76
2024/01/02 02:35:26;;;;;;;5.72;2.13;;;;;;;;;;5028610;28;20033;-76
2024/01/02 02:37:55;;;;;;;15.70;3.58;;;;;;;;;;5020355;28;20381;-76
2024/01/02 02:40:21;;;;;;;14.30;2.67;;;;;;;;;;5026010;28;20026;-76
2024/01/02 02:42:47;;;;;;;19.05;2.67;;;;;;;;;;5011216;28;20041;-77
2024/01/02 02:45:13;;;;;;;14.32;2.13;;;;;;;;;;5028791;28;20474;-76
2024/01/02 02:47:40;;;;;;;8.18;2.60;;;;;;;;;;5011323;28;20032;-76
2024/01/02 02:50:06;;;;;;;12.63;2.20;;;;;;;;;;5015853;28;20426;-76
2024/01/02 02:52:32;;;;;;;16.77;4.43;;;;;;;;;;5023886;28;20512;-76
2024/01/02 02:54:59;;;;;;;7.95;2.30;;;;;;;;;;5024635;28;20037;-76
2024/01/02 02:57:25;;;;;;;9.13;2.45;;;;;;;;;;5023870;28;20025;-76
2024/01/02 02:59:51;;;;;;;14.15;2.50;;;;;;;;;;5010416;28;20069;-77
2024/01/02 03:02:17;;;;;;;11.98;3.10;;;;;;;;;;5014228;28;20029;-76
2024/01/02 03:04:46;;;;;;;13.35;2.83;;;;;;;;;;5025389;28;20036;-76
2024/01/02 03:07:12;;;;;;;12.88;2.10;;;;;;;;;;5024543;28;20049;-77
2024/01/02 03:09:43;;;;;;;9.25;2.90;;;;;;;;;;5024084;28;20045;-77
2024/01/02 03:12:10;;;;;;;11.95;2.35;;;;;;;;;;5023992;28;20033;-76
2024/01/02 03:14:36;;;;;;;13.70;3.35;;;;;;;;;;5010160;28;20057;-76
2024/01/02 03:17:02;;;;;;;11.82;2.65;;;;;;;;;;5019892;28;20060;-78
2024/01/02 03:19:28;;;;;;;16.95;2.92;;;;;;;;;;5013061;28;20042;-77
2024/01/02 03:21:54;;;;;;;13.55;3.15;;;;;;;;;;5023181;28;20033;-76
2024/01/02 03:24:20;;;;;;;13.38;3.50;;;;;;;;;;5010546;28;20026;-77
2024/01/02 03:26:46;;;;;;;12.48;3.03;;;;;;;;;;5029499;28;20033;-77
2024/01/02 03:29:12;;;;;;;13.43;3.58;;;;;;;;;;5019042;28;20037;-76
2024/01/02 03:31:38;;;;;;;16.67;3.30;;;;;;;;;;5020188;28;20033;-76
2024/01/02 03:34:04;;;;;;;15.98;4.00;;;;;;;;;;5015787;28;20383;-77
2024/01/02 03:36:30;;;;;;;9.95;3.88;;;;;;;;;;5009914;28;20049;-76
2024/01/02 03:38:56;;;;;;;15.20;3.95;;;;;;;;;;5010154;28;20029;-76
2024/01/02 03:41:22;;;;;;;14.30;4.40;;;;;;;;;;5019598;28;20037;-77
2024/01/02 03:43:48;;;;;;;9.60;3.95;;;;;;;;;;5019706;28;20033;-77
2024/01/02 03:46:14;;;;;;;16.25;4.00;;;;;;;;;;5019258;28;20029;-76
2024/01/02 03:48:40;;;;;;;15.07;4.18;;;;;;;;;;5028710;28;20096;-75
2024/01/02 03:51:06;;;;;;;12.75;4.22;;;;;;;;;;5012917;28;20504;-76
2024/01/02 03:53:32;;;;;;;16.75;5.03;;;;;;;;;;5008871;28;20038;-75
2024/01/02 03:55:58;;;;;;;12.60;4.85;;;;;;;;;;5017876;28;20057;-76
2024/01/02 03:58:24;;;;;;;8.80;3.85;;;;;;;;;;5022465;28;20030;-76
2024/01/02 04:00:51;;;;;;;12.40;4.35;;;;;;;;;;5018037;28;20025;-74
2024/01/02 04:03:17;;;;;;;12.50;4.15;;;;;;;;;;5025264;28;20032;-75
2024/01/02 04:05:43;;;;;;;11.68;4.13;;;;;;;;;;5018814;28;20472;-77
2024/01/02 04:08:09;;;;;;;10.82;3.33;;;;;;;;;;5019677;28;20041;-75
2024/01/02 04:10:37;;;;;;;12.57;4.03;;;;;;;;;;5010189;28;20041;-76
2024/01/02 04:13:03;;;;;;;10.55;3.88;;;;;;;;;;5015460;28;20041;-76
2024/01/02 04:15:29;;;;;;;14.73;3.95;;;;;;;;;;5014988;28;20088;-75
2024/01/02 04:17:55;;;;;;;8.73;3.80;;;;;;;;;;5003905;28;20037;-76
2024/01/02 04:20:21;;;;;;;8.70;3.40;;;;;;;;;;5019563;28;20622;-75
2024/01/02 04:22:49;;;;;;;19.15;3.85;;;;;;;;;;5020451;28;20469;-75
2024/01/02 04:25:15;;;;;;;7.53;3.10;;;;;;;;;;5009565;28;20387;-75
2024/01/02 04:27:42;;;;;;;10.27;3.05;;;;;;;;;;5012255;28;20036;-76
2024/01/02 04:30:09;;;;;;;10.07;3.40;;;;;;;;;;5023047;28;20025;-75
2024/01/02 04:32:35;;;;;;;8.15;3.47;;;;;;;;;;5010943;28;20037;-76
2024/01/02 04:35:01;;;;;;;13.07;3.67;;;;;;;;;;5012896;28;20026;-77
2024/01/02 04:37:27;;;;;;;8.10;3.88;;;;;;;;;;5021442;28;20044;-77
2024/01/02 04:39:53;;;;;;;5.18;3.10;;;;;;;;;;5016729;28;20184;-78
2024/01/02 04:42:19;;;;;;;7.28;3.17;;;;;;;;;;5027521;28;20498;-77
2024/01/02 04:44:45;;;;;;;8.40;3.38;;;;;;;;;;5024046;28;20040;-76
2024/01/02 04:47:11;;;;;;;9.00;2.70;;;;;;;;;;5012295;28;20030;-77
2024/01/02 04:49:37;;;;;;;7.88;3.50;;;;;;;;;;5026159;28;20037;-76
2024/01/02 04:52:03;;;;;;;8.43;2.40;;;;;;;;;;5014525;28;20036;-76
2024/01/02 04:54:29;;;;;;;9.15;2.47;;;;;;;;;;5019509;28;20036;-75
2024/01/02 04:56:56;;;;;;;10.98;2.85;;;;;;;;;;5013748;28;20033;-76
2024/01/02 04:59:22;;;;;;;9.07;2.70;;;;;;;;;;5024234;28;20033;-76
2024/01/02 05:01:49;;;;;;;7.40;2.28;;;;;;;;;;5013153;28;20038;-76
2024/01/02 05:04:15;;;;;;;5.93;2.60;;;;;;;;;;5002774;28;20030;-77
2024/01/02 05:06:41;;;;;;;5.75;2.20;;;;;;;;;;5024327;28;20122;-77
2024/01/02 05:09:10;;;;;;;6.07;2.60;;;;;;;;;;5014962;28;20113;-79
2024/01/02 05:11:40;;;;;;;5.57;1.85;;;;;;;;;;5027559;28;20038;-77
2024/01/02 05:14:06;;;;;;;6.30;2.08;;;;;;;;;;5015863;28;20033;-76
2024/01/02 05:16:32;;;;;;;4.68;2.30;;;;;;;;;;5024158;28;20029;-77
2024/01/02 05:18:58;;;;;;;5.70;2.00;;;;;;;;;;5020773;28;20119;-77
2024/01/02 05:21:24;;;;;;;2.72;1.55;;;;;;;;;;5014982;28;20030;-77
2024/01/02 05:23:50;;;;;;;3.38;1.70;;;;;;;;;;5018021;28;20501;-77
2024/01/02 05:26:16;;;;;;;5.07;2.10;;;;;;;;;;5025612;28;20034;-77
2024/01/02 05:28:42;;;;;;;3.97;1.80;;;;;;;;;;5033023;28;20037;-76
2024/01/02 05:31:08;;;;;;;5.30;2.55;;;;;;;;;;5023229;28;20501;-75
2024/01/02 05:33:34;;;;;;;5.20;2.13;;;;;;;;;;5021957;28;20538;-76
2024/01/02 05:36:00;;;;;;;4.18;1.45;;;;;;;;;;5036384;28;20070;-75
2024/01/02 05:38:26;;;;;;;5.93;2.28;;;;;;;;;;5022757;28;20483;-77
2024/01/02 05:40:52;;;;;;;2.15;1.83;;;;;;;;;;5024858;28;20495;-78
2024/01/02 05:43:18;;;;;;;3.67;1.70;;;;;;;;;;5022366;28;20068;-80
2024/01/02 05:45:44;;;;;;;2.55;1.33;;;;;;;;;;5023716;28;20234;-79
2024/01/02 05:48:10;;;;;;;1.92;1.20;;;;;;;;;;5011921;28;20487;-78
2024/01/02 05:50:36;;;;;;;3.65;1.33;;;;;;;;;;5017002;28;20117;-78
2024/01/02 05:53:02;;;;;;;4.57;1.50;;;;;;;;;;5011844;28;20033;-77
2024/01/02 05:55:28;;;;;;;2.75;1.02;;;;;;;;;;5034607;28;20590;-78
2024/01/02 05:57:54;;;;;;;3.45;1.35;;;;;;;;;;5031312;28;20105;-78
2024/01/02 06:00:20;;;;;;;2.60;0.88;;;;;;;;;;5022093;28;20044;-78
2024/01/02 06:02:46;;;;;;;3.00;1.35;;;;;;;;;;5012004;28;20030;-78
2024/01/02 06:05:13;;;;;;;2.20;1.30;;;;;;;;;;5025279;28;20040;-79
2024/01/02 06:07:39;;;;;;;3.03;1.02;;;;;;;;;;5030771;28;20072;-79
2024/01/02 06:10:06;;;;;;;1.85;1.38;;;;;;;;;;5015196;28;20471;-78
2024/01/02 06:12:32;;;;;;;1.63;1.08;;;;;;;;;;5011013;28;20030;-78
2024/01/02 06:15:00;;;;;;;1.35;1.05;;;;;;;;;;5026648;28;20045;-78
2024/01/02 06:17:26;;;;;;;1.98;1.15;;;;;;;;;;5026553;28;20160;-77
2024/01/02 06:19:52;;;;;;;2.15;1.38;;;;;;;;;;5025998;28;20098;-77
2024/01/02 06:22:18;;;;;;;1.20;1.00;;;;;;;;;;5013597;28;20125;-78
2024/01/02 06:24:44;;;;;;;2.03;1.25;;;;;;;;;;5012738;28;20418;-78
2024/01/02 06:27:11;;;;;;;3.38;1.40;;;;;;;;;;5042155;28;20029;-77
2024/01/02 06:29:37;;;;;;;1.05;0.95;;;;;;;;;;5021401;28;20033;-77
2024/01/02 06:32:03;;;;;;;1.17;1.00;;;;;;;;;;5018513;28;20068;-78
2024/01/02 06:34:29;;;;;;;2.80;1.00;;;;;;;;;;5021283;28;20033;-77
2024/01/02 06:36:56;;;;;;;2.28;1.08;;;;;;;;;;5015816;28;20482;-79
2024/01/02 06:39:22;;;;;;;3.17;1.42;;;;;;;;;;5023048;28;20066;-78
2024/01/02 06:41:48;;;;;;;1.85;1.58;;;;;;;;;;5016867;28;20037;-77
2024/01/02 06:44:14;;;;;;;3.17;1.60;;;;;;;;;;5010600;28;20490;-78
2024/01/02 06:46:40;;;;;;;1.98;1.83;;;;;;;;;;5019612;28;20076;-79
2024/01/02 06:49:06;;;;;;;2.25;1.70;;;;;;;;;;5010636;28;20037;-76
2024/01/02 06:51:32;;;;;;;2.80;2.42;;;;;;;;;;5019201;28;20037;-77
2024/01/02 06:53:58;;;;;;;3.25;1.80;;;;;;;;;;5027855;28;20120;-78
2024/01/02 06:56:24;;;;;;;2.17;1.90;;;;;;;;;;5023176;28;20072;-77
2024/01/02 06:58:50;;;;;;;2.88;2.10;;;;;;;;;;5021332;28;20475;-78
2024/01/02 07:01:17;;;;;;;2.53;2.33;;;;;;;;;;5024863;28;20072;-78
2024/01/02 07:03:44;;;;;;;2.38;2.17;;;;;;;;;;5023567;28;20498;-78
2024/01/02 07:06:10;;;;;;;2.53;2.22;;;;;;;;;;5027812;28;20128;-77
2024/01/02 07:08:36;;;;;;;2.45;2.25;;;;;;;;;;5017004;28;20092;-78
2024/01/02 07:11:03;;;;;;;3.03;2.72;;;;;;;;;;5026664;28;20394;-78
2024/01/02 07:13:29;;;;;;;3.63;2.60;;;;;;;;;;5019419;28;20398;-78
2024/01/02 07:15:55;;;;;;;3.35;2.90;;;;;;;;;;5041586;28;20033;-77
2024/01/02 07:18:21;;;;;;;5.35;4.30;;;;;;;;;;5021496;28;20482;-77
2024/01/02 07:20:47;;;;;;;5.40;4.60;;;;;;;;;;5014460;28;20041;-76
2024/01/02 07:23:15;;;;;;;4.28;3.50;;;;;;;;;;5018000;28;20033;-76
2024/01/02 07:25:41;;;;;;;3.75;3.38;;;;;;;;;;5022768;28;20036;-76
2024/01/02 07:28:08;;;;;;;3.75;3.08;;;;;;;;;;5024326;28;20030;-76
2024/01/02 07:30:38;;;;;;;5.32;3.25;;;;;;;;;;5011647;28;20029;-77
2024/01/02 07:33:04;;;;;;;6.63;3.88;;;;;;;;;;5028959;28;20037;-79
2024/01/02 07:35:30;;;;;;;7.00;4.97;;;;;;;;;;5016070;28;20029;-78
2024/01/02 07:37:56;;;;;;;12.60;5.10;;;;;;;;;;5027329;28;20490;-78
2024/01/02 07:40:22;;;;;;;12.05;5.63;;;;;;;;;;5016311;28;20037;-78
2024/01/02 07:42:48;;;;;;;9.05;5.22;;;;;;;;;;5029691;28;20034;-79
2024/01/02 07:45:14;;;;;;;15.07;5.00;;;;;;;;;;5028649;28;20033;-77
2024/01/02 07:47:40;;;;;;;12.85;5.45;;;;;;;;;;5016641;28;20029;-77
2024/01/02 07:50:07;;;;;;;19.55;6.45;;;;;;;;;;5028958;28;20388;-76
2024/01/02 07:52:33;;;;;;;27.20;5.38;;;;;;;;;;5010496;28;20045;-76
2024/01/02 07:54:59;;;;;;;21.95;5.93;;;;;;;;;;5024988;28;20960;-77
2024/01/02 07:57:28;;;;;;;24.58;4.57;;;;;;;;;;5029976;28;20401;-76
2024/01/02 07:59:54;;;;;;;27.17;6.95;;;;;;;;;;5015601;28;20040;-76
2024/01/02 08:02:20;;;;;;;29.55;5.22;;;;;;;;;;5015567;28;20091;-76
2024/01/02 08:04:46;;;;;;;26.20;5.13;;;;;;;;;;5011163;28;20108;-77
2024/01/02 08:07:13;;;;;;;23.70;4.82;;;;;;;;;;5012006;28;20185;-76
2024/01/02 08:09:41;;;;;;;31.42;4.43;;;;;;;;;;5013554;28;20046;-77
2024/01/02 08:12:07;;;;;;;25.20;5.25;;;;;;;;;;5011698;28;20022;-77
2024/01/02 08:14:38;;;;;;;32.33;4.10;;;;;;;;;;5013173;28;20087;-76
2024/01/02 08:17:04;;;;;;;22.45;3.70;;;;;;;;;;5010211;28;20029;-76
2024/01/02 08:19:30;;;;;;;23.73;3.38;;;;;;;;;;5010758;28;20037;-76
2024/01/02 08:21:56;;;;;;;19.17;2.60;;;;;;;;;;5025839;28;20049;-76
2024/01/02 08:24:22;;;;;;;25.00;3.80;;;;;;;;;;5012315;28;20034;-76
2024/01/02 08:26:48;;;;;;;20.50;2.83;;;;;;;;;;5009875;28;20033;-75
2024/01/02 08:29:14;;;;;;;26.48;3.70;;;;;;;;;;5008125;28;20032;-76
2024/01/02 08:31:40;;;;;;;19.42;2.10;;;;;;;;;;5014179;28;20041;-76
2024/01/02 08:34:06;;;;;;;27.30;9.63;;;;;;;;;;5010724;28;20029;-75
2024/01/02 08:36:32;;;;;;;21.10;3.25;;;;;;;;;;5007106;28;20053;-76
2024/01/02 08:38:59;;;;;;;21.25;2.60;;;;;;;;;;5014063;28;20030;-76
2024/01/02 08:41:25;;;;;;;19.98;2.55;;;;;;;;;;5016114;28;20032;-76
2024/01/02 08:43:51;;;;;;;24.75;3.17;;;;;;;;;;5017314;28;20057;-75
2024/01/02 08:46:17;;;;;;;27.38;2.35;;;;;;;;;;5015544;28;20040;-76
2024/01/02 08:48:44;;;;;;;24.83;2.25;;;;;;;;;;5016942;28;20070;-75
2024/01/02 08:51:11;;;;;;;26.52;2.92;;;;;;;;;;5028619;28;20395;-76
2024/01/02 08:53:37;;;;;;;25.27;2.92;;;;;;;;;;5016686;28;20127;-76
2024/01/02 08:56:03;;;;;;;26.85;2.95;;;;;;;;;;5016526;28;20029;-76
2024/01/02 08:58:29;;;;;;;18.75;2.53;;;;;;;;;;5017085;28;20068;-76
2024/01/02 09:00:55;;;;;;;23.17;3.00;;;;;;;;;;5016867;28;20021;-76
2024/01/02 09:03:21;;;;;;;35.42;4.45;;;;;;;;;;5016655;28;20455;-76
2024/01/02 09:05:48;;;;;;;21.35;2.47;;;;;;;;;;5019327;28;20054;-77
2024/01/02 09:08:14;;;;;;;25.55;3.35;;;;;;;;;;5025210;28;20025;-76
2024/01/02 09:10:40;;;;;;;31.60;6.25;;;;;;;;;;5028037;28;20034;-76
2024/01/02 09:13:06;;;;;;;40.00;10.30;;;;;;;;;;5025982;28;20044;-76
2024/01/02 09:15:32;;;;;;;30.95;4.30;;;;;;;;;;5026148;28;20032;-78
2024/01/02 09:17:59;;;;;;;28.00;3.42;;;;;;;;;;5029161;28;20026;-76
2024/01/02 09:20:25;;;;;;;28.60;3.60;;;;;;;;;;5023238;28;20080;-76
2024/01/02 09:22:51;;;;;;;18.75;2.45;;;;;;;;;;5027028;28;20029;-76
2024/01/02 09:25:18;;;;;;;28.90;3.50;;;;;;;;;;5028104;28;20224;-76
2024/01/02 09:27:44;;;;;;;25.05;3.58;;;;;;;;;;5016486;28;20121;-76
2024/01/02 09:30:14;;;;;;;22.45;3.25;;;;;;;;;;5019476;28;20021;-75
2024/01/02 09:32:41;;;;;;;24.38;2.70;;;;;;;;;;5019732;28;20037;-76
2024/01/02 09:35:07;;;;;;;26.35;3.72;;;;;;;;;;5023225;28;20029;-76
2024/01/02 09:37:33;;;;;;;38.47;4.78;;;;;;;;;;5026417;28;20033;-76
2024/01/02 09:39:59;;;;;;;23.30;3.90;;;;;;;;;;5031676;28;20174;-76
2024/01/02 09:42:28;;;;;;;24.00;3.15;;;;;;;;;;5018993;28;20033;-77
2024/01/02 09:45:13;;;;;;;23.83;3.55;;;;;;;;;;5024821;28;20112;-77
2024/01/02 09:47:42;;;;;;;30.83;3.58;;;;;;;;;;4997380;28;20037;-77
2024/01/02 09:50:12;;;;;;;22.88;4.40;;;;;;;;;;5016968;28;20080;-78
2024/01/02 09:52:41;;;;;;;31.65;3.78;;;;;;;;;;5023148;28;20030;-78
2024/01/02 09:55:17;;;;;;;29.20;5.05;;;;;;;;;;5018139;28;20120;-76
2024/01/02 09:57:46;;;;;;;24.80;3.13;;;;;;;;;;5030457;28;20364;-76
2024/01/02 10:00:17;;;;;;;30.17;3.22;;;;;;;;;;5013405;28;20042;-77
2024/01/02 10:02:54;;;;;;;34.35;6.25;;;;;;;;;;5022719;28;20030;-77
2024/01/02 10:05:39;;;;;;;55.05;21.50;;;;;;;;;;5023318;28;20026;-77
2024/01/02 10:08:09;;;;;;;25.50;3.10;;;;;;;;;;5013101;28;20052;-78
2024/01/02 10:10:48;;;;;;;20.13;3.15;;;;;;;;;;5014994;28;20030;-76
2024/01/02 10:13:30;;;;;;;25.40;4.85;;;;;;;;;;5019989;28;20040;-77
2024/01/02 10:15:59;;;;;;;21.88;4.03;;;;;;;;;;5018301;28;20454;-75
2024/01/02 10:18:38;;;;;;;29.40;4.03;;;;;;;;;;5028535;28;20029;-75
2024/01/02 10:21:23;;;;;;;32.35;3.63;;;;;;;;;;5015671;28;20032;-75
2024/01/02 10:23:55;;;;;;;26.83;4.57;;;;;;;;;;5013641;28;20475;-75
2024/01/02 10:26:22;;;;;;;22.52;3.33;;;;;;;;;;5030850;28;20493;-75
2024/01/02 10:28:50;;;;;;;23.33;2.92;;;;;;;;;;5015171;28;20079;-76
2024/01/02 10:31:16;;;;;;;28.25;3.78;;;;;;;;;;5012858;28;20544;-76
2024/01/02 10:33:51;;;;;;;19.63;4.65;;;;;;;;;;5011060;28;20157;-73
2024/01/02 10:36:20;;;;;;;23.95;3.55;;;;;;;;;;5012221;28;20484;-76
2024/01/02 10:38:59;;;;;;;24.42;3.33;;;;;;;;;;5025253;28;20554;-75
2024/01/02 10:41:34;;;;;;;31.80;4.63;;;;;;;;;;5022618;28;20037;-72
2024/01/02 10:44:19;;;;;;;19.00;3.28;;;;;;;;;;5009359;28;20057;-79
2024/01/02 10:46:48;;;;;;;25.55;4.32;;;;;;;;;;5019087;28;20104;-74
2024/01/02 10:49:20;;;;;;;25.55;3.72;;;;;;;;;;5011558;28;20135;-76
2024/01/02 10:51:52;;;;;;;29.95;3.47;;;;;;;;;;5012103;28;20510;-75
2024/01/02 10:54:29;;;;;;;22.43;3.00;;;;;;;;;;5027629;28;20022;-76
2024/01/02 10:57:03;;;;;;;27.05;5.38;;;;;;;;;;5011863;28;20034;-76
2024/01/02 10:59:30;;;;;;;27.30;4.60;;;;;;;;;;5025089;28;20132;-76
2024/01/02 11:02:00;;;;;;;25.48;3.55;;;;;;;;;;5014447;28;20280;-75
2024/01/02 11:04:37;;;;;;;26.58;4.75;;;;;;;;;;5019288;28;20034;-76
2024/01/02 11:07:07;;;;;;;30.13;3.92;;;;;;;;;;5010674;28;20050;-73
2024/01/02 11:09:48;;;;;;;19.20;3.47;;;;;;;;;;5023101;28;20065;-75
2024/01/02 11:12:15;;;;;;;29.65;3.67;;;;;;;;;;5021848;28;20083;-76
2024/01/02 11:14:41;;;;;;;28.75;4.45;;;;;;;;;;5021590;28;20065;-74
2024/01/02 11:17:08;;;;;;;24.95;3.05;;;;;;;;;;5018379;28;20025;-73
2024/01/02 11:19:41;;;;;;;29.70;3.03;;;;;;;;;;5010386;28;20125;-76
2024/01/02 11:22:18;;;;;;;31.75;4.15;;;;;;;;;;5012152;28;20064;-76
2024/01/02 11:24:49;;;;;;;29.80;4.15;;;;;;;;;;5015778;28;20026;-76
2024/01/02 11:27:18;;;;;;;29.77;5.47;;;;;;;;;;5013374;28;20026;-75
2024/01/02 11:29:44;;;;;;;23.27;4.35;;;;;;;;;;5025524;28;20125;-76
2024/01/02 11:32:18;;;;;;;29.80;6.05;;;;;;;;;;5021077;28;20083;-76
2024/01/02 11:34:59;;;;;;;30.27;4.65;;;;;;;;;;5022584;28;20085;-76
2024/01/02 11:37:34;;;;;;;39.00;5.57;;;;;;;;;;5011683;28;20018;-77
2024/01/02 11:40:03;;;;;;;28.80;4.82;;;;;;;;;;5037562;28;20064;-76
2024/01/02 11:42:48;;;;;;;33.97;5.00;;;;;;;;;;5015379;28;20084;-75
2024/01/02 11:45:17;;;;;;;35.95;5.88;;;;;;;;;;5009798;28;20472;-77
2024/01/02 11:47:44;;;;;;;36.83;5.50;;;;;;;;;;5025731;28;20079;-78
2024/01/02 11:50:11;;;;;;;48.05;6.90;;;;;;;;;;5027283;28;20037;-77
2024/01/02 11:53:05;;;;;;;45.55;6.45;;;;;;;;;;5028737;28;20049;-78
2024/01/02 11:55:50;;;;;;;62.55;14.82;;;;;;;;;;5011059;28;20042;-76
2024/01/02 11:58:29;;;;;;;66.85;18.42;;;;;;;;;;5015029;28;20030;-77
2024/01/02 12:01:07;;;;;;;71.65;22.55;;;;;;;;;;5019720;28;20041;-77
2024/01/02 12:03:51;;;;;;;103.95;34.45;;;;;;;;;;5009549;28;20026;-77
2024/01/02 12:06:24;;;;;;;102.32;34.15;;;;;;;;;;5016135;28;20068;-76
2024/01/02 12:08:55;;;;;;;111.93;40.08;;;;;;;;;;5016196;28;20549;-77
2024/01/02 12:11:24;;;;;;;106.03;36.50;;;;;;;;;;5010411;28;20221;-77
2024/01/02 12:13:59;;;;;;;83.13;26.23;;;;;;;;;;5017539;28;20032;-77
2024/01/02 12:16:26;;;;;;;75.70;24.38;;;;;;;;;;5012060;28;20084;-78
2024/01/02 12:18:53;;;;;;;68.40;19.13;;;;;;;;;;5017141;28;20029;-77
2024/01/02 12:21:22;;;;;;;63.65;15.82;;;;;;;;;;5016841;28;20033;-76
2024/01/02 12:23:49;;;;;;;56.03;12.80;;;;;;;;;;5029384;28;20099;-78
2024/01/02 12:26:16;;;;;;;45.33;8.48;;;;;;;;;;5022858;28;20053;-77
2024/01/02 12:28:43;;;;;;;41.65;8.68;;;;;;;;;;5015043;28;20029;-80
2024/01/02 12:31:19;;;;;;;33.10;7.50;;;;;;;;;;5026993;28;20034;-78
2024/01/02 12:33:52;;;;;;;38.97;7.07;;;;;;;;;;5009466;28;20029;-77
2024/01/02 12:36:31;;;;;;;40.88;6.20;;;;;;;;;;5035332;28;20486;-78
2024/01/02 12:39:05;;;;;;;36.47;6.10;;;;;;;;;;5017416;28;20026;-77
2024/01/02 12:41:36;;;;;;;38.92;6.93;;;;;;;;;;5026676;28;20033;-77
2024/01/02 12:44:03;;;;;;;36.67;6.40;;;;;;;;;;5024499;28;20037;-77
2024/01/02 12:46:45;;;;;;;28.98;5.15;;;;;;;;;;5028422;28;20338;-77
2024/01/02 12:49:13;;;;;;;28.23;5.30;;;;;;;;;;5024264;28;20037;-76
2024/01/02 12:51:42;;;;;;;47.53;7.15;;;;;;;;;;5027746;28;20087;-77
2024/01/02 12:54:08;;;;;;;38.88;7.35;;;;;;;;;;5038697;28;20104;-76
2024/01/02 12:56:40;;;;;;;44.05;8.70;;;;;;;;;;5029353;28;20112;-77
2024/01/02 12:59:07;;;;;;;41.13;6.53;;;;;;;;;;5023676;28;20038;-76
2024/01/02 13:01:34;;;;;;;35.88;6.15;;;;;;;;;;5019679;28;20033;-77
2024/01/02 13:04:00;;;;;;;44.42;6.88;;;;;;;;;;5025182;28;20101;-76
2024/01/02 13:06:27;;;;;;;39.53;7.28;;;;;;;;;;5009432;28;20061;-76
2024/01/02 13:08:54;;;;;;;37.63;6.68;;;;;;;;;;5035610;28;20648;-76
2024/01/02 13:11:21;;;;;;;37.65;7.75;;;;;;;;;;5024939;28;20041;-78
2024/01/02 13:13:48;;;;;;;47.33;6.15;;;;;;;;;;5029111;28;20022;-78
2024/01/02 13:16:15;;;;;;;41.75;6.78;;;;;;;;;;5028441;28;20036;-75
2024/01/02 13:18:42;;;;;;;43.22;7.38;;;;;;;;;;5021001;28;20026;-76
2024/01/02 13:21:09;;;;;;;39.65;6.57;;;;;;;;;;5009702;28;20036;-77
2024/01/02 13:23:36;;;;;;;47.35;7.45;;;;;;;;;;5009759;28;20113;-76
2024/01/02 13:26:02;;;;;;;44.90;8.48;;;;;;;;;;5023041;28;20033;-76
2024/01/02 13:28:28;;;;;;;45.03;6.68;;;;;;;;;;5029704;28;20029;-78
2024/01/02 13:30:56;;;;;;;50.15;7.20;;;;;;;;;;5031849;28;20061;-76
2024/01/02 13:33:22;;;;;;;50.20;6.97;;;;;;;;;;5031933;28;20034;-78
2024/01/02 13:36:05;;;;;;;61.15;8.00;;;;;;;;;;5029581;28;20033;-76
2024/01/02 13:38:41;;;;;;;44.50;7.53;;;;;;;;;;5002194;28;20089;-77
2024/01/02 13:41:08;;;;;;;49.95;5.78;;;;;;;;;;5012221;28;20026;-76
2024/01/02 13:43:35;;;;;;;41.83;7.40;;;;;;;;;;5045505;28;20069;-77
2024/01/02 13:46:24;;;;;;;46.92;7.03;;;;;;;;;;5032014;28;20041;-76
2024/01/02 13:48:56;;;;;;;44.33;7.32;;;;;;;;;;5012607;28;20399;-76
2024/01/02 13:51:22;;;;;;;48.47;6.87;;;;;;;;;;5025879;28;20037;-76
2024/01/02 13:53:55;;;;;;;49.33;7.32;;;;;;;;;;5029242;28;20303;-77
2024/01/02 13:56:21;;;;;;;43.80;6.63;;;;;;;;;;5047026;28;20429;-77
2024/01/02 13:58:57;;;;;;;38.72;6.88;;;;;;;;;;5039632;28;20060;-75
2024/01/02 14:01:31;;;;;;;61.80;6.72;;;;;;;;;;5012637;28;20092;-77
2024/01/02 14:03:57;;;;;;;46.40;6.90;;;;;;;;;;5019039;28;20079;-77
2024/01/02 14:06:23;;;;;;;55.33;7.00;;;;;;;;;;5015016;28;20059;-77
2024/01/02 14:09:08;;;;;;;46.35;7.35;;;;;;;;;;5013517;28;20026;-77
2024/01/02 14:11:34;;;;;;;39.28;6.32;;;;;;;;;;5014246;28;20030;-77
2024/01/02 14:14:11;;;;;;;54.05;7.55;;;;;;;;;;5014098;28;20040;-77
2024/01/02 14:16:37;;;;;;;49.47;8.00;;;;;;;;;;5014843;28;20021;-74
2024/01/02 14:19:04;;;;;;;44.65;7.45;;;;;;;;;;5025582;28;20021;-75
2024/01/02 14:21:31;;;;;;;55.58;9.40;;;;;;;;;;5024683;28;20038;-77
2024/01/02 14:23:59;;;;;;;57.72;8.88;;;;;;;;;;5020676;28;20035;-77
2024/01/02 14:26:44;;;;;;;47.30;7.55;;;;;;;;;;5020348;28;20079;-78
2024/01/02 14:29:13;;;;;;;57.53;8.68;;;;;;;;;;5023403;28;20048;-78
2024/01/02 14:31:45;;;;;;;57.00;9.50;;;;;;;;;;5037476;28;20037;-78
2024/01/02 14:34:24;;;;;;;52.58;9.65;;;;;;;;;;5011457;28;20622;-78
2024/01/02 14:37:04;;;;;;;57.00;8.98;;;;;;;;;;5022762;28;20045;-78
2024/01/02 14:39:37;;;;;;;46.08;9.07;;;;;;;;;;5024590;28;20033;-79